createdAt,value
2017-07-12T00:01:42.925Z,10.23
2017-07-12T00:04:10.543Z,10.73
2017-07-12T00:06:38.137Z,11.33
2017-07-12T00:09:05.714Z,10.30
2017-07-12T00:11:34.126Z,10.43
2017-07-12T00:14:01.703Z,11.00
2017-07-12T00:16:29.291Z,9.63
2017-07-12T00:18:56.914Z,10.17
2017-07-12T00:21:24.525Z,10.70
2017-07-12T00:23:52.112Z,10.27
2017-07-12T00:26:19.727Z,9.50
2017-07-12T00:28:47.308Z,9.37
2017-07-12T00:31:14.938Z,8.67
2017-07-12T00:33:42.563Z,9.67
2017-07-12T00:36:10.142Z,9.60
2017-07-12T00:38:37.735Z,8.53
2017-07-12T00:41:05.360Z,8.60
2017-07-12T00:43:32.945Z,8.50
2017-07-12T00:46:00.537Z,7.63
2017-07-12T00:48:28.178Z,8.43
2017-07-12T00:50:55.778Z,9.00
2017-07-12T00:53:23.350Z,8.93
2017-07-12T00:55:51.001Z,8.67
2017-07-12T00:58:18.585Z,9.50
2017-07-12T01:00:46.170Z,9.53
2017-07-12T01:03:14.585Z,9.13
2017-07-12T01:05:42.172Z,10.73
2017-07-12T01:08:10.551Z,13.60
2017-07-12T01:10:38.188Z,13.70
2017-07-12T01:13:05.766Z,15.40
2017-07-12T01:15:33.360Z,18.20
2017-07-12T01:18:00.983Z,18.50
2017-07-12T01:20:28.568Z,18.70
2017-07-12T01:22:56.146Z,16.47
2017-07-12T01:25:23.787Z,15.03
2017-07-12T01:27:51.368Z,16.10
2017-07-12T01:30:18.960Z,17.60
2017-07-12T01:32:46.583Z,17.90
2017-07-12T01:35:14.931Z,19.13
2017-07-12T01:37:42.534Z,21.57
2017-07-12T01:40:10.164Z,23.00
2017-07-12T01:42:37.749Z,22.47
2017-07-12T01:45:05.330Z,23.60
2017-07-12T01:47:33.730Z,23.87
2017-07-12T01:50:01.312Z,24.37
2017-07-12T01:52:28.915Z,26.70
2017-07-12T01:54:56.530Z,28.30
2017-07-12T01:57:24.875Z,30.97
2017-07-12T01:59:53.237Z,30.43
2017-07-12T02:02:20.914Z,28.73
2017-07-12T02:04:48.490Z,28.67
2017-07-12T02:07:16.082Z,27.50
2017-07-12T02:09:43.764Z,29.73
2017-07-12T02:12:11.383Z,27.83
2017-07-12T02:14:38.990Z,27.40
2017-07-12T02:17:06.638Z,25.23
2017-07-12T02:19:34.220Z,27.20
2017-07-12T02:22:01.798Z,27.17
2017-07-12T02:24:29.428Z,26.17
2017-07-12T02:26:57.025Z,26.67
2017-07-12T02:29:24.603Z,26.90
2017-07-12T02:31:52.240Z,28.37
2017-07-12T02:34:19.815Z,25.70
2017-07-12T02:36:47.403Z,28.03
2017-07-12T02:39:15.025Z,28.07
2017-07-12T02:41:42.601Z,30.60
2017-07-12T02:44:10.961Z,27.03
2017-07-12T02:46:39.350Z,29.30
2017-07-12T02:49:06.946Z,33.03
2017-07-12T02:51:34.536Z,31.10
2017-07-12T02:54:02.183Z,29.20
2017-07-12T02:56:29.758Z,29.00
2017-07-12T02:58:57.330Z,29.00
2017-07-12T03:01:24.975Z,28.47
2017-07-12T03:03:52.550Z,26.63
2017-07-12T03:06:20.134Z,27.17
2017-07-12T03:08:47.764Z,30.67
2017-07-12T03:11:15.361Z,30.70
2017-07-12T03:13:43.720Z,31.67
2017-07-12T03:16:11.361Z,33.23
2017-07-12T03:18:38.938Z,32.10
2017-07-12T03:21:06.526Z,30.10
2017-07-12T03:23:34.159Z,32.10
2017-07-12T03:26:01.761Z,31.07
2017-07-12T03:28:29.352Z,33.00
2017-07-12T03:30:56.984Z,31.33
2017-07-12T03:33:24.590Z,29.80
2017-07-12T03:35:52.381Z,34.40
2017-07-12T03:38:20.048Z,32.60
2017-07-12T03:40:47.628Z,32.07
2017-07-12T03:43:15.985Z,29.13
2017-07-12T03:45:44.408Z,29.47
2017-07-12T03:48:11.995Z,30.50
2017-07-12T03:50:40.358Z,30.47
2017-07-12T03:53:08.760Z,28.40
2017-07-12T03:55:36.342Z,31.47
2017-07-12T03:58:03.950Z,31.23
2017-07-12T04:00:31.614Z,31.67
2017-07-12T04:02:59.214Z,31.60
2017-07-12T04:05:26.809Z,29.20
2017-07-12T04:07:54.469Z,31.40
2017-07-12T04:10:22.052Z,31.33
2017-07-12T04:12:49.626Z,29.73
2017-07-12T04:15:17.248Z,30.77
2017-07-12T04:17:44.822Z,31.90
2017-07-12T04:20:12.894Z,33.67
2017-07-12T04:22:41.314Z,35.43
2017-07-12T04:25:09.311Z,35.83
2017-07-12T04:27:37.701Z,34.87
2017-07-12T04:30:06.120Z,31.00
2017-07-12T04:32:33.706Z,34.23
2017-07-12T04:35:02.047Z,33.07
2017-07-12T04:37:29.706Z,30.23
2017-07-12T04:39:57.292Z,32.57
2017-07-12T04:42:24.880Z,31.17
2017-07-12T04:44:52.518Z,31.67
2017-07-12T04:47:20.100Z,30.40
2017-07-12T04:49:47.688Z,28.57
2017-07-12T04:52:15.338Z,32.23
2017-07-12T04:54:42.924Z,31.70
2017-07-12T04:57:10.513Z,32.40
2017-07-12T04:59:38.134Z,31.30
2017-07-12T05:02:05.731Z,30.10
2017-07-12T05:04:33.324Z,29.30
2017-07-12T05:07:00.941Z,30.07
2017-07-12T05:09:28.542Z,27.27
2017-07-12T05:11:56.129Z,27.70
2017-07-12T05:14:24.536Z,27.77
2017-07-12T05:16:52.125Z,27.00
2017-07-12T05:19:19.716Z,27.17
2017-07-12T05:21:47.345Z,27.53
2017-07-12T05:24:15.784Z,26.90
2017-07-12T05:26:43.517Z,27.47
2017-07-12T05:29:11.152Z,28.60
2017-07-12T05:31:38.745Z,27.17
2017-07-12T05:34:07.087Z,27.40
2017-07-12T05:36:34.711Z,27.13
2017-07-12T05:39:02.316Z,23.60
2017-07-12T05:41:29.900Z,24.43
2017-07-12T05:43:57.530Z,27.70
2017-07-12T05:46:25.109Z,25.07
2017-07-12T05:48:52.696Z,24.23
2017-07-12T05:51:20.340Z,22.27
2017-07-12T05:53:47.924Z,19.43
2017-07-12T05:56:15.522Z,17.50
2017-07-12T05:58:43.155Z,18.60
2017-07-12T06:01:11.515Z,18.00
2017-07-12T06:03:39.867Z,16.57
2017-07-12T06:06:08.251Z,17.60
2017-07-12T06:08:35.835Z,17.43
2017-07-12T06:11:03.433Z,16.63
2017-07-12T06:13:31.061Z,16.07
2017-07-12T06:15:59.413Z,14.60
2017-07-12T06:18:26.989Z,12.77
2017-07-12T06:20:54.614Z,14.13
2017-07-12T06:23:22.964Z,13.70
2017-07-12T06:25:50.548Z,11.80
2017-07-12T06:28:18.212Z,12.50
2017-07-12T06:30:45.792Z,10.53
2017-07-12T06:33:13.376Z,11.97
2017-07-12T06:35:41.007Z,11.37
2017-07-12T06:38:09.342Z,9.63
2017-07-12T06:40:36.925Z,9.70
2017-07-12T06:43:04.555Z,10.03
2017-07-12T06:45:32.898Z,11.10
2017-07-12T06:48:00.470Z,10.93
2017-07-12T06:50:28.124Z,10.57
2017-07-12T06:52:55.731Z,12.00
2017-07-12T06:55:23.361Z,12.47
2017-07-12T06:57:51.004Z,13.50
2017-07-12T07:00:18.642Z,13.10
2017-07-12T07:02:46.224Z,12.07
2017-07-12T07:05:14.628Z,12.90
2017-07-12T07:07:42.223Z,13.70
2017-07-12T07:10:09.800Z,12.97
2017-07-12T07:12:37.450Z,14.10
2017-07-12T07:15:05.044Z,13.40
2017-07-12T07:17:32.629Z,13.27
2017-07-12T07:20:00.260Z,12.07
2017-07-12T07:22:28.611Z,12.90
2017-07-12T07:24:56.187Z,11.83
2017-07-12T07:27:23.831Z,13.40
2017-07-12T07:29:51.421Z,12.53
2017-07-12T07:32:19.013Z,11.60
2017-07-12T07:34:46.673Z,11.10
2017-07-12T07:37:14.260Z,10.93
2017-07-12T07:39:41.830Z,11.47
2017-07-12T07:42:10.227Z,12.73
2017-07-12T07:44:37.822Z,12.60
2017-07-12T07:47:05.412Z,12.00
2017-07-12T07:49:33.041Z,13.70
2017-07-12T07:52:00.641Z,12.73
2017-07-12T07:54:28.228Z,13.67
2017-07-12T07:56:55.858Z,15.50
2017-07-12T07:59:24.213Z,14.10
2017-07-12T08:01:52.572Z,13.47
2017-07-12T08:04:20.209Z,13.33
2017-07-12T08:06:47.808Z,14.30
2017-07-12T08:09:15.391Z,14.50
2017-07-12T08:11:43.035Z,14.10
2017-07-12T08:14:10.606Z,14.37
2017-07-12T08:16:39.043Z,13.30
2017-07-12T08:19:06.673Z,12.90
2017-07-12T08:21:34.260Z,11.17
2017-07-12T08:24:02.621Z,14.73
2017-07-12T08:26:31.054Z,14.23
2017-07-12T08:28:58.641Z,13.27
2017-07-12T08:31:27.003Z,13.20
2017-07-12T08:33:54.651Z,14.37
2017-07-12T08:36:22.239Z,15.83
2017-07-12T08:38:49.815Z,14.20
2017-07-12T08:41:17.448Z,15.03
2017-07-12T08:43:45.044Z,14.73
2017-07-12T08:46:12.646Z,16.27
2017-07-12T08:48:40.299Z,18.10
2017-07-12T08:51:08.667Z,18.03
2017-07-12T08:53:37.007Z,16.63
2017-07-12T08:56:04.648Z,17.37
2017-07-12T08:58:32.237Z,16.73
2017-07-12T09:00:59.825Z,16.50
2017-07-12T09:03:27.451Z,17.20
2017-07-12T09:05:55.027Z,17.83
2017-07-12T09:08:22.734Z,19.53
2017-07-12T09:10:50.378Z,17.27
2017-07-12T09:13:17.968Z,17.47
2017-07-12T09:15:45.557Z,17.07
2017-07-12T09:18:13.193Z,18.40
2017-07-12T09:20:40.793Z,16.40
2017-07-12T09:23:08.374Z,18.47
2017-07-12T09:35:27.793Z,13.90
2017-07-12T09:37:55.380Z,14.20
2017-07-12T09:40:23.000Z,14.10
2017-07-12T09:42:51.346Z,14.20
2017-07-12T09:45:18.950Z,12.50
2017-07-12T09:47:46.790Z,13.07
2017-07-12T09:50:14.377Z,14.37
2017-07-12T09:52:41.964Z,13.13
2017-07-12T09:55:10.364Z,13.10
2017-07-12T09:57:37.957Z,12.40
2017-07-12T10:00:06.321Z,11.27
2017-07-12T10:02:34.722Z,13.77
2017-07-12T10:05:02.307Z,15.10
2017-07-12T10:07:29.883Z,13.53
2017-07-12T10:09:58.283Z,14.43
2017-07-12T10:12:26.692Z,12.97
2017-07-12T10:14:55.063Z,12.80
2017-07-12T10:17:23.479Z,13.17
2017-07-12T10:19:51.061Z,13.60
2017-07-12T10:22:18.643Z,13.40
2017-07-12T10:24:46.282Z,13.17
2017-07-12T10:27:13.872Z,12.97
2017-07-12T10:29:41.443Z,14.13
2017-07-12T10:32:09.826Z,13.30
2017-07-12T10:34:37.653Z,10.70
2017-07-12T10:37:05.230Z,11.73
2017-07-12T10:39:32.865Z,12.00
2017-07-12T10:42:00.567Z,11.63
2017-07-12T10:44:28.173Z,11.27
2017-07-12T10:46:55.818Z,9.60
2017-07-12T10:49:23.396Z,11.47
2017-07-12T10:51:50.980Z,11.10
2017-07-12T10:54:19.376Z,10.57
2017-07-12T10:56:46.964Z,9.80
2017-07-12T10:59:14.534Z,9.37
2017-07-12T11:01:42.217Z,9.97
2017-07-12T11:04:09.809Z,10.70
2017-07-12T11:06:37.383Z,10.27
2017-07-12T11:09:05.024Z,9.67
2017-07-12T11:11:32.607Z,9.83
2017-07-12T11:14:00.190Z,10.30
2017-07-12T11:16:28.580Z,9.37
2017-07-12T11:18:56.155Z,9.10
2017-07-12T11:21:23.739Z,8.77
2017-07-12T11:23:52.127Z,7.40
2017-07-12T11:26:19.732Z,7.70
2017-07-12T11:28:47.311Z,7.80
2017-07-12T11:31:14.922Z,8.67
2017-07-12T11:33:42.513Z,8.40
2017-07-12T11:36:10.092Z,7.30
2017-07-12T11:38:37.724Z,6.80
2017-07-12T11:41:05.317Z,6.97
2017-07-12T11:43:33.672Z,7.10
2017-07-12T11:46:02.067Z,7.40
2017-07-12T11:48:29.643Z,10.53
2017-07-12T11:50:57.238Z,8.83
2017-07-12T11:53:24.881Z,6.80
2017-07-12T11:55:53.225Z,6.33
2017-07-12T11:58:20.813Z,6.80
2017-07-12T12:00:48.437Z,6.90
2017-07-12T12:03:16.922Z,7.10
2017-07-12T12:05:44.500Z,8.03
2017-07-12T12:08:12.253Z,5.77
2017-07-12T12:10:39.842Z,3.90
2017-07-12T12:13:07.442Z,3.80
2017-07-12T12:15:35.076Z,2.67
2017-07-12T12:18:02.652Z,2.90
2017-07-12T12:20:30.995Z,2.87
2017-07-12T12:22:58.615Z,4.20
2017-07-12T12:25:26.182Z,3.90
2017-07-12T12:27:53.768Z,4.50
2017-07-12T12:30:22.146Z,4.37
2017-07-12T12:32:49.833Z,5.10
2017-07-12T12:35:17.427Z,4.63
2017-07-12T12:37:45.053Z,5.60
2017-07-12T12:40:13.390Z,4.60
2017-07-12T12:42:41.369Z,4.00
2017-07-12T12:45:09.755Z,4.70
2017-07-12T12:47:37.331Z,4.80
2017-07-12T12:50:04.916Z,4.80
2017-07-12T12:52:33.312Z,4.30
2017-07-12T12:55:00.901Z,3.50
2017-07-12T12:57:28.472Z,3.90
2017-07-12T12:59:56.882Z,4.43
2017-07-12T13:02:24.529Z,3.87
2017-07-12T13:04:57.884Z,3.85
2017-07-12T13:07:25.496Z,3.20
2017-07-12T13:09:53.116Z,3.10
2017-07-12T13:12:20.745Z,3.03
2017-07-12T13:14:48.327Z,3.10
2017-07-12T13:17:16.680Z,2.90
2017-07-12T13:19:44.309Z,2.70
2017-07-12T13:22:11.906Z,2.60
2017-07-12T13:24:39.484Z,2.50
2017-07-12T13:27:07.143Z,3.17
2017-07-12T13:29:34.718Z,3.53
2017-07-12T13:32:03.077Z,3.40
2017-07-12T13:34:31.481Z,2.90
2017-07-12T13:36:59.045Z,3.70
2017-07-12T13:39:26.611Z,4.15
2017-07-12T13:41:54.233Z,3.90
2017-07-12T13:44:21.799Z,3.17
2017-07-12T13:46:49.393Z,3.70
2017-07-12T13:49:17.021Z,3.87
2017-07-12T13:51:44.613Z,3.60
2017-07-12T13:54:12.269Z,4.00
2017-07-12T13:56:39.880Z,4.47
2017-07-12T13:59:07.468Z,4.60
2017-07-12T14:01:35.073Z,5.87
2017-07-12T14:04:02.709Z,5.00
2017-07-12T14:06:30.274Z,4.43
2017-07-12T14:08:57.863Z,5.17
2017-07-12T14:11:26.238Z,5.17
2017-07-12T14:13:54.019Z,4.30
2017-07-12T14:16:21.596Z,4.83
2017-07-12T14:18:49.238Z,3.20
2017-07-12T14:21:16.838Z,2.80
2017-07-12T14:23:44.421Z,2.80
2017-07-12T14:26:12.030Z,3.03
2017-07-12T14:28:39.608Z,2.80
2017-07-12T14:31:07.183Z,2.30
2017-07-12T14:33:35.582Z,2.70
2017-07-12T14:36:03.168Z,1.90
2017-07-12T14:38:30.754Z,2.30
2017-07-12T14:40:58.419Z,2.10
2017-07-12T14:43:25.999Z,2.70
2017-07-12T14:45:54.001Z,2.40
2017-07-12T14:48:21.664Z,2.80
2017-07-12T14:50:49.248Z,2.40
2017-07-12T14:53:16.843Z,2.50
2017-07-12T14:55:44.455Z,2.70
2017-07-12T14:58:12.813Z,2.50
2017-07-12T15:00:40.396Z,3.27
2017-07-12T15:03:08.034Z,2.80
2017-07-12T15:05:35.602Z,3.17
2017-07-12T15:08:03.197Z,3.00
2017-07-12T15:10:31.584Z,3.03
2017-07-12T15:12:59.151Z,3.23
2017-07-12T15:15:26.747Z,3.03
2017-07-12T15:17:55.133Z,2.73
2017-07-12T15:20:22.707Z,2.43
2017-07-12T15:22:50.274Z,3.13
2017-07-12T15:25:17.917Z,2.60
2017-07-12T15:27:45.517Z,2.83
2017-07-12T15:30:13.114Z,2.70
2017-07-12T15:32:41.409Z,2.67
2017-07-12T15:35:10.724Z,2.73
2017-07-12T15:37:39.158Z,2.70
2017-07-12T15:40:08.574Z,2.50
2017-07-12T15:42:37.043Z,3.63
2017-07-12T15:45:05.497Z,2.97
2017-07-12T15:47:33.959Z,3.43
2017-07-12T15:50:02.424Z,3.80
2017-07-12T15:52:30.974Z,4.37
2017-07-12T15:55:00.340Z,5.23
2017-07-12T15:57:28.835Z,4.63
2017-07-12T15:59:58.363Z,9.87
2017-07-12T16:02:27.003Z,15.57
2017-07-12T16:04:56.420Z,7.50
2017-07-12T16:07:24.196Z,7.73
2017-07-12T16:09:53.181Z,8.60
2017-07-12T16:12:21.906Z,7.10
2017-07-12T16:14:50.691Z,13.80
2017-07-12T16:17:19.161Z,8.30
2017-07-12T16:19:47.616Z,7.60
2017-07-12T16:22:16.169Z,7.90
2017-07-12T16:24:44.677Z,6.60
2017-07-12T16:27:13.167Z,5.63
2017-07-12T16:29:42.412Z,5.60
2017-07-12T16:32:11.604Z,6.50
2017-07-12T16:34:40.601Z,7.30
2017-07-12T16:37:10.040Z,5.97
2017-07-12T16:39:38.611Z,6.10
2017-07-12T16:42:06.283Z,6.10
2017-07-12T16:44:34.619Z,6.47
2017-07-12T16:47:02.324Z,7.30
2017-07-12T16:49:29.943Z,6.07
2017-07-12T16:51:58.302Z,6.00
2017-07-12T16:54:26.711Z,6.93
2017-07-12T16:56:54.318Z,5.73
2017-07-12T16:59:22.675Z,5.70
2017-07-12T17:01:51.104Z,4.97
2017-07-12T17:04:18.721Z,5.53
2017-07-12T17:06:46.297Z,4.87
2017-07-12T17:09:13.922Z,5.43
2017-07-12T17:11:41.507Z,5.43
2017-07-12T17:14:09.856Z,5.40
2017-07-12T17:16:37.490Z,5.10
2017-07-12T17:19:05.094Z,4.80
2017-07-12T17:21:32.686Z,4.80
2017-07-12T17:24:00.369Z,5.20
2017-07-12T17:26:27.966Z,4.80
2017-07-12T17:28:55.532Z,5.00
2017-07-12T17:31:23.938Z,4.53
2017-07-12T17:33:51.527Z,5.37
2017-07-12T17:36:19.159Z,5.87
2017-07-12T17:38:46.866Z,5.90
2017-07-12T17:41:14.559Z,4.30
2017-07-12T17:43:42.139Z,4.90
2017-07-12T17:46:09.802Z,4.60
2017-07-12T17:48:37.389Z,3.50
2017-07-12T17:51:04.980Z,4.80
2017-07-12T17:53:32.656Z,5.83
2017-07-12T17:56:00.269Z,3.57
2017-07-12T17:58:27.864Z,2.73
2017-07-12T18:00:55.473Z,3.13
2017-07-12T18:03:23.087Z,2.70
2017-07-12T18:05:50.662Z,3.17
2017-07-12T18:08:18.282Z,2.93
2017-07-12T18:10:45.860Z,2.87
2017-07-12T18:13:13.435Z,2.57
2017-07-12T18:15:41.056Z,3.17
2017-07-12T18:18:08.630Z,2.77
2017-07-12T18:20:36.273Z,2.53
2017-07-12T18:23:03.881Z,2.17
2017-07-12T18:25:31.456Z,2.70
2017-07-12T18:27:59.036Z,2.33
2017-07-12T18:30:27.410Z,2.10
2017-07-12T18:32:55.001Z,2.83
2017-07-12T18:35:22.580Z,2.63
2017-07-12T18:37:50.997Z,2.60
2017-07-12T18:40:18.575Z,2.33
2017-07-12T18:42:46.156Z,2.60
2017-07-12T18:45:13.781Z,2.70
2017-07-12T18:47:42.124Z,2.40
2017-07-12T18:50:09.695Z,3.00
2017-07-12T18:52:37.319Z,1.80
2017-07-12T18:55:04.905Z,3.53
2017-07-12T18:57:32.474Z,2.60
2017-07-12T19:00:00.100Z,3.00
2017-07-12T19:02:27.712Z,2.63
2017-07-12T19:04:56.050Z,2.20
2017-07-12T19:07:23.673Z,2.90
2017-07-12T19:09:51.263Z,2.40
2017-07-12T19:12:18.845Z,3.57
2017-07-12T19:14:46.488Z,3.00
2017-07-12T19:17:14.076Z,2.50
2017-07-12T19:19:41.681Z,2.63
2017-07-12T19:22:09.481Z,2.93
2017-07-12T19:24:37.302Z,2.37
2017-07-12T19:27:05.158Z,2.73
2017-07-12T19:29:33.801Z,3.67
2017-07-12T19:32:01.627Z,2.70
2017-07-12T19:34:29.390Z,3.37
2017-07-12T19:36:57.308Z,3.20
2017-07-12T19:39:25.228Z,3.05
2017-07-12T19:41:53.155Z,3.20
2017-07-12T19:44:21.068Z,2.97
2017-07-12T19:46:48.708Z,3.30
2017-07-12T19:49:16.300Z,2.67
2017-07-12T19:51:43.927Z,3.37
2017-07-12T19:54:11.519Z,3.10
2017-07-12T19:56:39.104Z,2.57
2017-07-12T19:59:06.753Z,3.10
2017-07-12T20:01:34.343Z,3.30
2017-07-12T20:04:01.913Z,2.53
2017-07-12T20:06:30.308Z,4.00
2017-07-12T20:08:57.902Z,3.30
2017-07-12T20:11:25.505Z,3.33
2017-07-12T20:13:53.184Z,2.95
2017-07-12T20:16:20.755Z,3.20
2017-07-12T20:18:49.105Z,2.63
2017-07-12T20:21:16.744Z,3.73
2017-07-12T20:23:44.318Z,2.77
2017-07-12T20:26:12.664Z,3.47
2017-07-12T20:28:41.063Z,2.80
2017-07-12T20:31:08.658Z,2.80
2017-07-12T20:33:36.250Z,3.53
2017-07-12T20:36:03.894Z,3.95
2017-07-12T20:38:31.472Z,3.67
2017-07-12T20:40:59.141Z,2.70
2017-07-12T20:43:26.772Z,2.90
2017-07-12T20:45:54.360Z,3.45
2017-07-12T20:48:21.934Z,3.22
2017-07-12T20:50:49.582Z,2.97
2017-07-12T20:53:17.154Z,2.90
2017-07-12T20:55:44.749Z,2.67
2017-07-12T20:58:12.379Z,2.53
2017-07-12T21:00:39.990Z,3.78
2017-07-12T21:03:07.575Z,2.83
2017-07-12T21:05:35.222Z,3.45
2017-07-12T21:08:02.827Z,3.30
2017-07-12T21:10:30.398Z,2.90
2017-07-12T21:12:58.057Z,3.43
2017-07-12T21:15:25.653Z,3.92
2017-07-12T21:17:53.243Z,2.83
2017-07-12T21:20:20.863Z,3.55
2017-07-12T21:22:49.229Z,3.47
2017-07-12T21:25:16.818Z,3.17
2017-07-12T21:27:44.454Z,3.12
2017-07-12T21:30:12.039Z,3.30
2017-07-12T21:32:39.609Z,4.40
2017-07-12T21:35:07.995Z,3.03
2017-07-12T21:37:35.689Z,3.43
2017-07-12T21:40:03.280Z,2.80
2017-07-12T21:42:30.917Z,3.12
2017-07-12T21:44:58.513Z,3.03
2017-07-12T21:47:26.109Z,3.00
2017-07-12T21:49:53.754Z,2.90
2017-07-12T21:52:21.339Z,3.72
2017-07-12T21:55:06.894Z,2.77
2017-07-12T21:57:52.028Z,3.40
2017-07-12T22:00:37.203Z,3.03
2017-07-12T22:03:22.540Z,3.25
2017-07-12T22:06:07.817Z,3.30
2017-07-12T22:08:53.210Z,3.10
2017-07-12T22:11:38.562Z,4.10
2017-07-12T22:14:23.715Z,3.47
2017-07-12T22:17:09.168Z,3.30
2017-07-12T22:19:54.408Z,3.15
2017-07-12T22:22:39.757Z,3.47
2017-07-12T22:25:24.875Z,3.87
2017-07-12T22:28:11.012Z,3.77
2017-07-12T22:30:56.049Z,2.90
2017-07-12T22:33:41.556Z,3.70
2017-07-12T22:36:27.621Z,2.72
2017-07-12T22:39:00.997Z,5.15
2017-07-12T22:41:34.279Z,3.12
2017-07-12T22:44:01.425Z,3.55
2017-07-12T22:46:29.774Z,4.10
2017-07-12T22:48:58.127Z,3.00
2017-07-12T22:51:25.764Z,3.05
2017-07-12T22:53:53.353Z,3.05
2017-07-12T22:56:20.948Z,3.90
2017-07-12T22:58:48.580Z,3.30
2017-07-12T23:01:16.169Z,2.67
2017-07-12T23:03:43.772Z,3.65
2017-07-12T23:06:11.496Z,2.70
2017-07-12T23:08:39.096Z,3.60
2017-07-12T23:11:06.729Z,3.55
2017-07-12T23:13:34.368Z,3.10
2017-07-12T23:16:01.976Z,2.75
2017-07-12T23:18:29.559Z,4.00
2017-07-12T23:20:57.200Z,3.33
2017-07-12T23:23:24.801Z,3.55
2017-07-12T23:25:52.409Z,3.87
2017-07-12T23:28:20.030Z,3.53
2017-07-12T23:30:47.616Z,2.37
2017-07-12T23:33:15.954Z,3.42
2017-07-12T23:35:43.601Z,3.50
2017-07-12T23:38:11.192Z,2.85
2017-07-12T23:40:38.783Z,3.03
2017-07-12T23:43:06.416Z,2.80
2017-07-12T23:45:34.018Z,4.78
2017-07-12T23:48:01.608Z,3.75
2017-07-12T23:50:29.253Z,3.45
2017-07-12T23:52:56.837Z,3.72
2017-07-12T23:55:24.442Z,2.78
2017-07-12T23:57:52.076Z,3.12
